N415DB PADU-PAAK
Flight info
| Callsign | N415DB |
|---|---|
| Flight time | 2h 5m |
| Altitude | 10000 |
| Route | ALEUT T227 HIMKI |
| Aircraft | C208/L-SBDFGRY/LU2 |
Departure
| Time | 2026-05-08 22:27 |
|---|---|
| Airport | Tom Madsen (Dutch Harbor) Airport (PADU) |
Arrival
| Time | 2026-05-09 00:32 |
|---|---|
| Airport | Atka Airport (PAAK) |
| Time | Latitude | Longitude | Altitude | Speed | Heading |
|---|---|---|---|---|---|
| 2026-05-08 22:07 | 53.89519 | -166.54220 | 13 ft | 0 kts | 103° |
| 2026-05-08 22:25 | 53.89517 | -166.54179 | 12 ft | 8 kts | 88° |
| 2026-05-08 22:25 | 53.89523 | -166.54066 | 10 ft | 14 kts | 96° |
| 2026-05-08 22:25 | 53.89528 | -166.53916 | 7 ft | 4 kts | 1° |
| 2026-05-08 22:25 | 53.89532 | -166.53917 | 7 ft | 0 kts | 343° |
| 2026-05-08 22:26 | 53.89537 | -166.53923 | 7 ft | 0 kts | 318° |
| 2026-05-08 22:26 | 53.89596 | -166.54021 | 11 ft | 34 kts | 315° |
| 2026-05-08 22:26 | 53.89881 | -166.54491 | 19 ft | 76 kts | 316° |
| 2026-05-08 22:27 | 53.90283 | -166.55110 | 219 ft | 82 kts | 321° |
| 2026-05-08 22:27 | 53.90752 | -166.55748 | 407 ft | 92 kts | 337° |
| 2026-05-08 22:27 | 53.91409 | -166.55730 | 629 ft | 101 kts | 6° |
| 2026-05-08 22:27 | 53.92134 | -166.55597 | 857 ft | 108 kts | 5° |
| 2026-05-08 22:28 | 53.92906 | -166.55456 | 1106 ft | 115 kts | 4° |
| 2026-05-08 22:28 | 53.93718 | -166.55308 | 1366 ft | 119 kts | 5° |
| 2026-05-08 22:28 | 53.94546 | -166.55164 | 1666 ft | 120 kts | 5° |
| 2026-05-08 22:28 | 53.95374 | -166.55013 | 1945 ft | 120 kts | 5° |
| 2026-05-08 22:29 | 53.96203 | -166.54862 | 2216 ft | 120 kts | 5° |
| 2026-05-08 22:29 | 53.97035 | -166.54711 | 2492 ft | 120 kts | 5° |
| 2026-05-08 22:29 | 53.97865 | -166.54551 | 2757 ft | 120 kts | 5° |
| 2026-05-08 22:29 | 53.98417 | -166.54450 | 2938 ft | 120 kts | 5° |
| 2026-05-08 22:30 | 53.99521 | -166.54297 | 3276 ft | 119 kts | 355° |
| 2026-05-08 22:30 | 54.00163 | -166.55109 | 3545 ft | 125 kts | 295° |
| 2026-05-08 22:30 | 54.00295 | -166.56596 | 3815 ft | 128 kts | 282° |
| 2026-05-08 22:30 | 54.00380 | -166.57588 | 3989 ft | 128 kts | 283° |
| 2026-05-08 22:31 | 54.00508 | -166.59096 | 4228 ft | 130 kts | 283° |
| 2026-05-08 22:31 | 54.00637 | -166.60618 | 4468 ft | 131 kts | 282° |
| 2026-05-08 22:31 | 54.00816 | -166.62655 | 4783 ft | 132 kts | 283° |
| 2026-05-08 22:31 | 54.00907 | -166.63704 | 4936 ft | 133 kts | 283° |
| 2026-05-08 22:32 | 54.01039 | -166.65260 | 5179 ft | 137 kts | 282° |
| 2026-05-08 22:32 | 54.01175 | -166.66870 | 5411 ft | 137 kts | 283° |
| 2026-05-08 22:32 | 54.01307 | -166.68489 | 5644 ft | 139 kts | 282° |
| 2026-05-08 22:32 | 54.01448 | -166.70111 | 5883 ft | 138 kts | 283° |
| 2026-05-08 22:33 | 54.01590 | -166.71717 | 6116 ft | 137 kts | 282° |
| 2026-05-08 22:33 | 54.01736 | -166.73306 | 6341 ft | 135 kts | 283° |
| 2026-05-08 22:33 | 54.01862 | -166.74885 | 6562 ft | 134 kts | 282° |
| 2026-05-08 22:33 | 54.01994 | -166.76450 | 6782 ft | 133 kts | 283° |
| 2026-05-08 22:34 | 54.02103 | -166.77987 | 7005 ft | 132 kts | 282° |
| 2026-05-08 22:34 | 54.02207 | -166.79540 | 7225 ft | 132 kts | 283° |
| 2026-05-08 22:34 | 54.02309 | -166.81082 | 7450 ft | 131 kts | 282° |
| 2026-05-08 22:34 | 54.02314 | -166.82636 | 7677 ft | 133 kts | 269° |
| 2026-05-08 22:35 | 54.02298 | -166.84184 | 7903 ft | 130 kts | 278° |
| 2026-05-08 22:35 | 54.02320 | -166.85718 | 8134 ft | 130 kts | 277° |
| 2026-05-08 22:35 | 54.02341 | -166.87251 | 8367 ft | 129 kts | 277° |
| 2026-05-08 22:35 | 54.02362 | -166.88777 | 8593 ft | 129 kts | 277° |
| 2026-05-08 22:36 | 54.02382 | -166.90298 | 8829 ft | 128 kts | 277° |
| 2026-05-08 22:36 | 54.02402 | -166.91815 | 9064 ft | 128 kts | 277° |
| 2026-05-08 22:36 | 54.02424 | -166.93340 | 9279 ft | 129 kts | 277° |
| 2026-05-08 22:36 | 54.02447 | -166.94879 | 9497 ft | 130 kts | 277° |
| 2026-05-08 22:37 | 54.02472 | -166.96421 | 9716 ft | 130 kts | 277° |
| 2026-05-08 22:37 | 54.02498 | -166.97967 | 9917 ft | 131 kts | 277° |
| 2026-05-08 22:37 | 54.02528 | -166.99556 | 9992 ft | 141 kts | 277° |
| 2026-05-08 22:37 | 54.02565 | -167.01260 | 10004 ft | 147 kts | 277° |
| 2026-05-08 22:38 | 54.02608 | -167.03024 | 10001 ft | 151 kts | 277° |
| 2026-05-08 22:38 | 54.02654 | -167.04827 | 10000 ft | 154 kts | 277° |
| 2026-05-08 22:38 | 54.02703 | -167.06653 | 10000 ft | 155 kts | 277° |
| 2026-05-08 22:38 | 54.02750 | -167.08495 | 10002 ft | 156 kts | 277° |
| 2026-05-08 22:39 | 54.02799 | -167.10323 | 10002 ft | 157 kts | 277° |
| 2026-05-08 22:39 | 54.02849 | -167.12187 | 10001 ft | 157 kts | 277° |
| 2026-05-08 22:39 | 54.02901 | -167.14052 | 10002 ft | 158 kts | 277° |
| 2026-05-08 22:39 | 54.02963 | -167.15920 | 10002 ft | 158 kts | 277° |
| 2026-05-08 22:40 | 54.03036 | -167.17764 | 10002 ft | 159 kts | 277° |
| 2026-05-08 22:40 | 54.03116 | -167.19639 | 10002 ft | 159 kts | 277° |
| 2026-05-08 22:40 | 54.03197 | -167.21516 | 10001 ft | 159 kts | 277° |
| 2026-05-08 22:40 | 54.03279 | -167.23400 | 10001 ft | 159 kts | 277° |
| 2026-05-08 22:41 | 54.03361 | -167.25280 | 10002 ft | 160 kts | 277° |
| 2026-05-08 22:41 | 54.03442 | -167.27164 | 10003 ft | 159 kts | 277° |
| 2026-05-08 22:41 | 54.03529 | -167.29039 | 10004 ft | 159 kts | 277° |
| 2026-05-08 22:41 | 54.03615 | -167.30910 | 10004 ft | 159 kts | 277° |
| 2026-05-08 22:42 | 54.03702 | -167.32778 | 10001 ft | 158 kts | 277° |
| 2026-05-08 22:42 | 54.03788 | -167.34646 | 10001 ft | 158 kts | 277° |
| 2026-05-08 22:42 | 54.03873 | -167.36513 | 10002 ft | 158 kts | 277° |
| 2026-05-08 22:42 | 54.03956 | -167.38382 | 10002 ft | 158 kts | 277° |
| 2026-05-08 22:43 | 54.04036 | -167.40249 | 10002 ft | 158 kts | 277° |
| 2026-05-08 22:43 | 54.04116 | -167.42113 | 10002 ft | 158 kts | 277° |
| 2026-05-08 22:43 | 54.04197 | -167.43981 | 10002 ft | 158 kts | 277° |
| 2026-05-08 22:43 | 54.04278 | -167.45847 | 10002 ft | 158 kts | 277° |
| 2026-05-08 22:44 | 54.04358 | -167.47691 | 10010 ft | 158 kts | 277° |
| 2026-05-08 22:44 | 54.04439 | -167.49558 | 10010 ft | 158 kts | 277° |
| 2026-05-08 22:44 | 54.04520 | -167.51421 | 10010 ft | 158 kts | 277° |
| 2026-05-08 22:44 | 54.04601 | -167.53290 | 10010 ft | 158 kts | 277° |
| 2026-05-08 22:45 | 54.04681 | -167.55157 | 10007 ft | 158 kts | 277° |
| 2026-05-08 22:45 | 54.04761 | -167.57027 | 10007 ft | 158 kts | 277° |
| 2026-05-08 22:45 | 54.04843 | -167.58897 | 10007 ft | 158 kts | 277° |
| 2026-05-08 22:45 | 54.04924 | -167.60761 | 10007 ft | 158 kts | 277° |
| 2026-05-08 22:46 | 54.05115 | -167.62563 | 10007 ft | 156 kts | 286° |
| 2026-05-08 22:46 | 54.05205 | -167.64408 | 10006 ft | 159 kts | 269° |
| 2026-05-08 22:46 | 54.04970 | -167.66260 | 10007 ft | 161 kts | 258° |
| 2026-05-08 22:46 | 54.04653 | -167.68088 | 10007 ft | 161 kts | 258° |
| 2026-05-08 22:47 | 54.04334 | -167.69914 | 10010 ft | 161 kts | 257° |
| 2026-05-08 22:47 | 54.04014 | -167.71749 | 10010 ft | 161 kts | 256° |
| 2026-05-08 22:47 | 54.03693 | -167.73581 | 10011 ft | 161 kts | 258° |
| 2026-05-08 22:47 | 54.03373 | -167.75414 | 10009 ft | 162 kts | 257° |
| 2026-05-08 22:48 | 54.03055 | -167.77228 | 10009 ft | 162 kts | 258° |
| 2026-05-08 22:48 | 54.02734 | -167.79058 | 10007 ft | 161 kts | 258° |
| 2026-05-08 22:48 | 54.02414 | -167.80890 | 10000 ft | 162 kts | 256° |
| 2026-05-08 22:48 | 54.02091 | -167.82718 | 10001 ft | 161 kts | 257° |
| 2026-05-08 22:49 | 54.01770 | -167.84545 | 10001 ft | 161 kts | 256° |
| 2026-05-08 22:49 | 54.01126 | -167.88196 | 10001 ft | 161 kts | 257° |
| 2026-05-08 22:49 | 54.00806 | -167.90015 | 10001 ft | 161 kts | 257° |
| 2026-05-08 22:50 | 54.00485 | -167.91829 | 10002 ft | 160 kts | 257° |
| 2026-05-08 22:50 | 54.00164 | -167.93645 | 10007 ft | 160 kts | 256° |
| 2026-05-08 22:50 | 53.99842 | -167.95458 | 10007 ft | 160 kts | 257° |
| 2026-05-08 22:50 | 53.99526 | -167.97251 | 10006 ft | 160 kts | 256° |
| 2026-05-08 22:51 | 53.99204 | -167.99068 | 10003 ft | 161 kts | 256° |
| 2026-05-08 22:51 | 53.98879 | -168.00891 | 10004 ft | 161 kts | 257° |
| 2026-05-08 22:51 | 53.98556 | -168.02713 | 10004 ft | 161 kts | 257° |
| 2026-05-08 22:51 | 53.98232 | -168.04526 | 10004 ft | 160 kts | 258° |
| 2026-05-08 22:52 | 53.97910 | -168.06341 | 10007 ft | 160 kts | 257° |
| 2026-05-08 22:52 | 53.97588 | -168.08153 | 10007 ft | 160 kts | 256° |
| 2026-05-08 22:52 | 53.97262 | -168.09969 | 10007 ft | 160 kts | 256° |
| 2026-05-08 22:52 | 53.96938 | -168.11787 | 10006 ft | 161 kts | 256° |
| 2026-05-08 22:53 | 53.96617 | -168.13582 | 10007 ft | 161 kts | 257° |
| 2026-05-08 22:53 | 53.96292 | -168.15399 | 10007 ft | 161 kts | 256° |
| 2026-05-08 22:53 | 53.95967 | -168.17213 | 10010 ft | 160 kts | 257° |
| 2026-05-08 22:53 | 53.95641 | -168.19031 | 10011 ft | 160 kts | 257° |
| 2026-05-08 22:54 | 53.95316 | -168.20844 | 10010 ft | 160 kts | 256° |
| 2026-05-08 22:54 | 53.94990 | -168.22653 | 10010 ft | 160 kts | 256° |
| 2026-05-08 22:54 | 53.94665 | -168.24465 | 10009 ft | 161 kts | 256° |
| 2026-05-08 22:54 | 53.94338 | -168.26280 | 10009 ft | 161 kts | 256° |
| 2026-05-08 22:55 | 53.94010 | -168.28095 | 10008 ft | 161 kts | 257° |
| 2026-05-08 22:55 | 53.93687 | -168.29893 | 10008 ft | 161 kts | 257° |
| 2026-05-08 22:55 | 53.93359 | -168.31707 | 10008 ft | 160 kts | 257° |
| 2026-05-08 22:55 | 53.93032 | -168.33518 | 10005 ft | 160 kts | 257° |
| 2026-05-08 22:56 | 53.92704 | -168.35330 | 10004 ft | 161 kts | 257° |
| 2026-05-08 22:56 | 53.92376 | -168.37139 | 10004 ft | 161 kts | 257° |
| 2026-05-08 22:56 | 53.92047 | -168.38953 | 10006 ft | 161 kts | 256° |
| 2026-05-08 22:56 | 53.91717 | -168.40768 | 10007 ft | 161 kts | 257° |
| 2026-05-08 22:57 | 53.91389 | -168.42581 | 10010 ft | 161 kts | 256° |
| 2026-05-08 22:57 | 53.91059 | -168.44394 | 10011 ft | 160 kts | 257° |
| 2026-05-08 22:57 | 53.90735 | -168.46180 | 10012 ft | 160 kts | 256° |
| 2026-05-08 22:57 | 53.90406 | -168.47988 | 10010 ft | 160 kts | 256° |
| 2026-05-08 22:58 | 53.90075 | -168.49793 | 10008 ft | 160 kts | 256° |
| 2026-05-08 22:58 | 53.89746 | -168.51601 | 10004 ft | 161 kts | 255° |
| 2026-05-08 22:58 | 53.89414 | -168.53414 | 10005 ft | 161 kts | 256° |
| 2026-05-08 22:58 | 53.89083 | -168.55225 | 10005 ft | 161 kts | 256° |
| 2026-05-08 22:59 | 53.88752 | -168.57032 | 10006 ft | 161 kts | 256° |
| 2026-05-08 22:59 | 53.88420 | -168.58841 | 10006 ft | 160 kts | 257° |
| 2026-05-08 22:59 | 53.88091 | -168.60646 | 10006 ft | 161 kts | 255° |
| 2026-05-08 22:59 | 53.87757 | -168.62454 | 10009 ft | 161 kts | 256° |
| 2026-05-08 23:00 | 53.87429 | -168.64241 | 10008 ft | 161 kts | 255° |
| 2026-05-08 23:00 | 53.87094 | -168.66059 | 10008 ft | 161 kts | 256° |
| 2026-05-08 23:00 | 53.86760 | -168.67871 | 10009 ft | 161 kts | 256° |
| 2026-05-08 23:00 | 53.86427 | -168.69681 | 10009 ft | 161 kts | 256° |
| 2026-05-08 23:01 | 53.86095 | -168.71487 | 10009 ft | 160 kts | 256° |
| 2026-05-08 23:01 | 53.85761 | -168.73288 | 10009 ft | 160 kts | 255° |
| 2026-05-08 23:01 | 53.85427 | -168.75092 | 10009 ft | 160 kts | 256° |
| 2026-05-08 23:01 | 53.85094 | -168.76897 | 10009 ft | 161 kts | 256° |
| 2026-05-08 23:02 | 53.84765 | -168.78679 | 10008 ft | 161 kts | 255° |
| 2026-05-08 23:02 | 53.84427 | -168.80491 | 10010 ft | 161 kts | 256° |
| 2026-05-08 23:02 | 53.84093 | -168.82297 | 10009 ft | 161 kts | 256° |
| 2026-05-08 23:02 | 53.83756 | -168.84105 | 10010 ft | 160 kts | 257° |
| 2026-05-08 23:03 | 53.83423 | -168.85905 | 10012 ft | 160 kts | 256° |
| 2026-05-08 23:03 | 53.83086 | -168.87711 | 10012 ft | 161 kts | 256° |
| 2026-05-08 23:03 | 53.82750 | -168.89513 | 10009 ft | 160 kts | 255° |
| 2026-05-08 23:03 | 53.82413 | -168.91315 | 10008 ft | 160 kts | 256° |
| 2026-05-08 23:04 | 53.82078 | -168.93105 | 10004 ft | 159 kts | 256° |
| 2026-05-08 23:04 | 53.81747 | -168.94882 | 10002 ft | 158 kts | 256° |
| 2026-05-08 23:04 | 53.81417 | -168.96645 | 10001 ft | 157 kts | 256° |
| 2026-05-08 23:04 | 53.81089 | -168.98397 | 10000 ft | 156 kts | 256° |
| 2026-05-08 23:05 | 53.80764 | -169.00134 | 10001 ft | 156 kts | 256° |
| 2026-05-08 23:05 | 53.80436 | -169.01878 | 10000 ft | 155 kts | 256° |
| 2026-05-08 23:05 | 53.80110 | -169.03623 | 9998 ft | 156 kts | 255° |
| 2026-05-08 23:05 | 53.79780 | -169.05368 | 10001 ft | 156 kts | 255° |
| 2026-05-08 23:06 | 53.79453 | -169.07113 | 10002 ft | 156 kts | 255° |
| 2026-05-08 23:06 | 53.79124 | -169.08859 | 10005 ft | 156 kts | 256° |
| 2026-05-08 23:06 | 53.78797 | -169.10604 | 10005 ft | 156 kts | 255° |
| 2026-05-08 23:06 | 53.78467 | -169.12349 | 10005 ft | 156 kts | 255° |
| 2026-05-08 23:07 | 53.78141 | -169.14070 | 10002 ft | 156 kts | 256° |
| 2026-05-08 23:07 | 53.77812 | -169.15813 | 10002 ft | 156 kts | 255° |
| 2026-05-08 23:07 | 53.77483 | -169.17559 | 10001 ft | 156 kts | 255° |
| 2026-05-08 23:07 | 53.77151 | -169.19304 | 10002 ft | 156 kts | 256° |
| 2026-05-08 23:08 | 53.76822 | -169.21048 | 10008 ft | 156 kts | 255° |
| 2026-05-08 23:08 | 53.76490 | -169.22789 | 10008 ft | 155 kts | 257° |
| 2026-05-08 23:08 | 53.76162 | -169.24527 | 10001 ft | 155 kts | 256° |
| 2026-05-08 23:08 | 53.75831 | -169.26265 | 10000 ft | 156 kts | 255° |
| 2026-05-08 23:09 | 53.75497 | -169.28019 | 10000 ft | 157 kts | 255° |
| 2026-05-08 23:09 | 53.75161 | -169.29781 | 10000 ft | 158 kts | 255° |
| 2026-05-08 23:09 | 53.74829 | -169.31529 | 10001 ft | 158 kts | 256° |
| 2026-05-08 23:09 | 53.74492 | -169.33299 | 10002 ft | 158 kts | 255° |
| 2026-05-08 23:10 | 53.74152 | -169.35076 | 10005 ft | 159 kts | 256° |
| 2026-05-08 23:10 | 53.73813 | -169.36848 | 10006 ft | 158 kts | 256° |
| 2026-05-08 23:10 | 53.73476 | -169.38623 | 10006 ft | 159 kts | 255° |
| 2026-05-08 23:10 | 53.73134 | -169.40395 | 10007 ft | 159 kts | 256° |
| 2026-05-08 23:11 | 53.72795 | -169.42169 | 10001 ft | 159 kts | 254° |
| 2026-05-08 23:11 | 53.72453 | -169.43947 | 10001 ft | 159 kts | 255° |
| 2026-05-08 23:11 | 53.72114 | -169.45718 | 10035 ft | 157 kts | 255° |
| 2026-05-08 23:11 | 53.71777 | -169.47473 | 10040 ft | 157 kts | 256° |
| 2026-05-08 23:12 | 53.71439 | -169.49236 | 10048 ft | 158 kts | 255° |
| 2026-05-08 23:12 | 53.71099 | -169.50999 | 10046 ft | 158 kts | 255° |
| 2026-05-08 23:12 | 53.70757 | -169.52767 | 10051 ft | 158 kts | 255° |
| 2026-05-08 23:12 | 53.70417 | -169.54538 | 10049 ft | 159 kts | 254° |
| 2026-05-08 23:13 | 53.70073 | -169.56313 | 10044 ft | 159 kts | 253° |
| 2026-05-08 23:13 | 53.69735 | -169.58064 | 10049 ft | 159 kts | 255° |
| 2026-05-08 23:13 | 53.69393 | -169.59839 | 10045 ft | 159 kts | 254° |
| 2026-05-08 23:13 | 53.69048 | -169.61615 | 10045 ft | 159 kts | 255° |
| 2026-05-08 23:14 | 53.68706 | -169.63388 | 10046 ft | 159 kts | 254° |
| 2026-05-08 23:14 | 53.68361 | -169.65161 | 10046 ft | 159 kts | 255° |
| 2026-05-08 23:14 | 53.68017 | -169.66934 | 10043 ft | 159 kts | 253° |
| 2026-05-08 23:14 | 53.67671 | -169.68709 | 10042 ft | 159 kts | 254° |
| 2026-05-08 23:15 | 53.67325 | -169.70494 | 10043 ft | 159 kts | 254° |
| 2026-05-08 23:15 | 53.66984 | -169.72251 | 10038 ft | 159 kts | 254° |
| 2026-05-08 23:15 | 53.66637 | -169.74027 | 10037 ft | 159 kts | 255° |
| 2026-05-08 23:15 | 53.66292 | -169.75805 | 10039 ft | 159 kts | 254° |
| 2026-05-08 23:16 | 53.65945 | -169.77580 | 10038 ft | 159 kts | 254° |
| 2026-05-08 23:16 | 53.65599 | -169.79352 | 10043 ft | 159 kts | 253° |
| 2026-05-08 23:16 | 53.65251 | -169.81127 | 10041 ft | 159 kts | 254° |
| 2026-05-08 23:16 | 53.65016 | -169.82327 | 10043 ft | 160 kts | 255° |
| 2026-05-08 23:17 | 53.64674 | -169.84079 | 10044 ft | 160 kts | 253° |
| 2026-05-08 23:17 | 53.64325 | -169.85854 | 10044 ft | 159 kts | 254° |
| 2026-05-08 23:17 | 53.63976 | -169.87634 | 10038 ft | 159 kts | 255° |
| 2026-05-08 23:17 | 53.63627 | -169.89413 | 10041 ft | 160 kts | 254° |
| 2026-05-08 23:18 | 53.63278 | -169.91188 | 10044 ft | 160 kts | 254° |
| 2026-05-08 23:18 | 53.62929 | -169.92963 | 10044 ft | 159 kts | 253° |
| 2026-05-08 23:18 | 53.62578 | -169.94737 | 10039 ft | 159 kts | 254° |
| 2026-05-08 23:18 | 53.62230 | -169.96511 | 10037 ft | 159 kts | 254° |
| 2026-05-08 23:19 | 53.61880 | -169.98283 | 10047 ft | 159 kts | 255° |
| 2026-05-08 23:19 | 53.61531 | -170.00056 | 10047 ft | 159 kts | 254° |
| 2026-05-08 23:19 | 53.61180 | -170.01828 | 10042 ft | 159 kts | 254° |
| 2026-05-08 23:19 | 53.60834 | -170.03574 | 10045 ft | 159 kts | 253° |
| 2026-05-08 23:20 | 53.60483 | -170.05348 | 10042 ft | 159 kts | 254° |
| 2026-05-08 23:20 | 53.60132 | -170.07120 | 10042 ft | 159 kts | 254° |
| 2026-05-08 23:20 | 53.59781 | -170.08893 | 10038 ft | 159 kts | 253° |
| 2026-05-08 23:20 | 53.59428 | -170.10668 | 10042 ft | 159 kts | 254° |
| 2026-05-08 23:21 | 53.59076 | -170.12442 | 10035 ft | 159 kts | 253° |
| 2026-05-08 23:21 | 53.58727 | -170.14193 | 10041 ft | 160 kts | 252° |
| 2026-05-08 23:21 | 53.58373 | -170.15972 | 10039 ft | 160 kts | 252° |
| 2026-05-08 23:21 | 53.58018 | -170.17755 | 10042 ft | 160 kts | 252° |
| 2026-05-08 23:22 | 53.57663 | -170.19532 | 10048 ft | 160 kts | 253° |
| 2026-05-08 23:22 | 53.57309 | -170.21313 | 10043 ft | 160 kts | 252° |
| 2026-05-08 23:22 | 53.56953 | -170.23093 | 10048 ft | 161 kts | 252° |
| 2026-05-08 23:22 | 53.56596 | -170.24874 | 10048 ft | 161 kts | 253° |
| 2026-05-08 23:23 | 53.56240 | -170.26654 | 10049 ft | 161 kts | 252° |
| 2026-05-08 23:23 | 53.55884 | -170.28433 | 10045 ft | 161 kts | 252° |
| 2026-05-08 23:23 | 53.55526 | -170.30212 | 10049 ft | 161 kts | 252° |
| 2026-05-08 23:23 | 53.55168 | -170.31995 | 10046 ft | 161 kts | 252° |
| 2026-05-08 23:24 | 53.54812 | -170.33776 | 10044 ft | 161 kts | 252° |
| 2026-05-08 23:24 | 53.54454 | -170.35555 | 10046 ft | 161 kts | 253° |
| 2026-05-08 23:24 | 53.54096 | -170.37335 | 10040 ft | 161 kts | 252° |
| 2026-05-08 23:24 | 53.53741 | -170.39091 | 10047 ft | 161 kts | 252° |
| 2026-05-08 23:25 | 53.53382 | -170.40876 | 10044 ft | 161 kts | 252° |
| 2026-05-08 23:25 | 53.53023 | -170.42654 | 10044 ft | 161 kts | 252° |
| 2026-05-08 23:25 | 53.52662 | -170.44437 | 10044 ft | 161 kts | 252° |
| 2026-05-08 23:25 | 53.52303 | -170.46215 | 10047 ft | 161 kts | 252° |
| 2026-05-08 23:26 | 53.51942 | -170.47996 | 10050 ft | 161 kts | 253° |
| 2026-05-08 23:26 | 53.51583 | -170.49775 | 10050 ft | 161 kts | 252° |
| 2026-05-08 23:26 | 53.51222 | -170.51553 | 10050 ft | 161 kts | 252° |
| 2026-05-08 23:26 | 53.50861 | -170.53332 | 10050 ft | 161 kts | 252° |
| 2026-05-08 23:27 | 53.50500 | -170.55108 | 10047 ft | 161 kts | 252° |
| 2026-05-08 23:27 | 53.50143 | -170.56867 | 10047 ft | 161 kts | 252° |
| 2026-05-08 23:27 | 53.49781 | -170.58643 | 10047 ft | 161 kts | 252° |
| 2026-05-08 23:27 | 53.49420 | -170.60423 | 10047 ft | 161 kts | 252° |
| 2026-05-08 23:28 | 53.49058 | -170.62197 | 10039 ft | 161 kts | 252° |
| 2026-05-08 23:28 | 53.48695 | -170.63974 | 10042 ft | 161 kts | 252° |
| 2026-05-08 23:28 | 53.48333 | -170.65751 | 10048 ft | 161 kts | 252° |
| 2026-05-08 23:28 | 53.47970 | -170.67523 | 10047 ft | 161 kts | 252° |
| 2026-05-08 23:29 | 53.47607 | -170.69302 | 10047 ft | 161 kts | 251° |
| 2026-05-08 23:29 | 53.47242 | -170.71081 | 10042 ft | 161 kts | 251° |
| 2026-05-08 23:29 | 53.46877 | -170.72865 | 10047 ft | 162 kts | 251° |
| 2026-05-08 23:29 | 53.46515 | -170.74631 | 10047 ft | 161 kts | 251° |
| 2026-05-08 23:30 | 53.46149 | -170.76413 | 10042 ft | 161 kts | 251° |
| 2026-05-08 23:30 | 53.45782 | -170.78200 | 10048 ft | 162 kts | 251° |
| 2026-05-08 23:30 | 53.45413 | -170.79994 | 10047 ft | 164 kts | 251° |
| 2026-05-08 23:30 | 53.45039 | -170.81811 | 10048 ft | 165 kts | 251° |
| 2026-05-08 23:31 | 53.44660 | -170.83648 | 10057 ft | 167 kts | 251° |
| 2026-05-08 23:31 | 53.44281 | -170.85490 | 10057 ft | 167 kts | 251° |
| 2026-05-08 23:31 | 53.43903 | -170.87324 | 10053 ft | 166 kts | 251° |
| 2026-05-08 23:31 | 53.43526 | -170.89151 | 10051 ft | 165 kts | 251° |
| 2026-05-08 23:32 | 53.43154 | -170.90947 | 10053 ft | 165 kts | 251° |
| 2026-05-08 23:32 | 53.42777 | -170.92770 | 10056 ft | 166 kts | 251° |
| 2026-05-08 23:32 | 53.42399 | -170.94599 | 10057 ft | 166 kts | 251° |
| 2026-05-08 23:32 | 53.42017 | -170.96437 | 10048 ft | 167 kts | 251° |
| 2026-05-08 23:33 | 53.41637 | -170.98266 | 10055 ft | 166 kts | 251° |
| 2026-05-08 23:33 | 53.41260 | -171.00083 | 10055 ft | 165 kts | 251° |
| 2026-05-08 23:33 | 53.40883 | -171.01893 | 10055 ft | 164 kts | 250° |
| 2026-05-08 23:33 | 53.40508 | -171.03698 | 10047 ft | 164 kts | 250° |
| 2026-05-08 23:34 | 53.40131 | -171.05503 | 10038 ft | 164 kts | 250° |
| 2026-05-08 23:34 | 53.39755 | -171.07306 | 10040 ft | 164 kts | 250° |
| 2026-05-08 23:34 | 53.39378 | -171.09112 | 10042 ft | 164 kts | 250° |
| 2026-05-08 23:34 | 53.39002 | -171.10912 | 10042 ft | 164 kts | 250° |
| 2026-05-08 23:35 | 53.38625 | -171.12716 | 10043 ft | 164 kts | 250° |
| 2026-05-08 23:35 | 53.38248 | -171.14519 | 10043 ft | 164 kts | 250° |
| 2026-05-08 23:35 | 53.37874 | -171.16303 | 10044 ft | 164 kts | 250° |
| 2026-05-08 23:35 | 53.37495 | -171.18110 | 10038 ft | 165 kts | 250° |
| 2026-05-08 23:36 | 53.37115 | -171.19922 | 10043 ft | 165 kts | 250° |
| 2026-05-08 23:36 | 53.36736 | -171.21730 | 10043 ft | 164 kts | 250° |
| 2026-05-08 23:36 | 53.36357 | -171.23535 | 10039 ft | 164 kts | 250° |
| 2026-05-08 23:36 | 53.35978 | -171.25336 | 10042 ft | 164 kts | 249° |
| 2026-05-08 23:37 | 53.35602 | -171.27117 | 10041 ft | 164 kts | 249° |
| 2026-05-08 23:37 | 53.35221 | -171.28926 | 10038 ft | 165 kts | 249° |
| 2026-05-08 23:37 | 53.34839 | -171.30735 | 10041 ft | 165 kts | 248° |
| 2026-05-08 23:37 | 53.34457 | -171.32545 | 10038 ft | 165 kts | 249° |
| 2026-05-08 23:38 | 53.34075 | -171.34353 | 10043 ft | 165 kts | 249° |
| 2026-05-08 23:38 | 53.33694 | -171.36154 | 10040 ft | 164 kts | 249° |
| 2026-05-08 23:38 | 53.33315 | -171.37952 | 10040 ft | 164 kts | 249° |
| 2026-05-08 23:38 | 53.32932 | -171.39754 | 10036 ft | 164 kts | 249° |
| 2026-05-08 23:39 | 53.32549 | -171.41565 | 10040 ft | 165 kts | 248° |
| 2026-05-08 23:39 | 53.32163 | -171.43382 | 10041 ft | 166 kts | 249° |
| 2026-05-08 23:39 | 53.31777 | -171.45200 | 10042 ft | 166 kts | 249° |
| 2026-05-08 23:39 | 53.31388 | -171.47025 | 10045 ft | 166 kts | 249° |
| 2026-05-08 23:40 | 53.31006 | -171.48825 | 10045 ft | 167 kts | 249° |
| 2026-05-08 23:40 | 53.30616 | -171.50656 | 10041 ft | 167 kts | 249° |
| 2026-05-08 23:40 | 53.30225 | -171.52492 | 10044 ft | 168 kts | 248° |
| 2026-05-08 23:40 | 53.29832 | -171.54332 | 10049 ft | 168 kts | 249° |
| 2026-05-08 23:41 | 53.29440 | -171.56170 | 10052 ft | 168 kts | 248° |
| 2026-05-08 23:41 | 53.29045 | -171.58009 | 10036 ft | 167 kts | 249° |
| 2026-05-08 23:41 | 53.28655 | -171.59846 | 10039 ft | 167 kts | 249° |
| 2026-05-08 23:41 | 53.28262 | -171.61676 | 10045 ft | 167 kts | 249° |
| 2026-05-08 23:42 | 53.27874 | -171.63483 | 10041 ft | 167 kts | 249° |
| 2026-05-08 23:42 | 53.27480 | -171.65318 | 10044 ft | 168 kts | 249° |
| 2026-05-08 23:42 | 53.27085 | -171.67151 | 10037 ft | 168 kts | 248° |
| 2026-05-08 23:42 | 53.26690 | -171.68986 | 10044 ft | 167 kts | 249° |
| 2026-05-08 23:43 | 53.26299 | -171.70808 | 10044 ft | 166 kts | 249° |
| 2026-05-08 23:43 | 53.25907 | -171.72622 | 10039 ft | 166 kts | 249° |
| 2026-05-08 23:43 | 53.25516 | -171.74435 | 10033 ft | 166 kts | 248° |
| 2026-05-08 23:43 | 53.25124 | -171.76250 | 10042 ft | 166 kts | 248° |
| 2026-05-08 23:44 | 53.24734 | -171.78060 | 10036 ft | 165 kts | 248° |
| 2026-05-08 23:44 | 53.24349 | -171.79844 | 10035 ft | 165 kts | 248° |
| 2026-05-08 23:44 | 53.23959 | -171.81655 | 10041 ft | 166 kts | 248° |
| 2026-05-08 23:44 | 53.23567 | -171.83468 | 10040 ft | 166 kts | 248° |
| 2026-05-08 23:45 | 53.23171 | -171.85289 | 10036 ft | 167 kts | 247° |
| 2026-05-08 23:45 | 53.22776 | -171.87109 | 10041 ft | 167 kts | 247° |
| 2026-05-08 23:45 | 53.22377 | -171.88941 | 10035 ft | 167 kts | 248° |
| 2026-05-08 23:45 | 53.21983 | -171.90762 | 10041 ft | 167 kts | 247° |
| 2026-05-08 23:46 | 53.21589 | -171.92576 | 10036 ft | 166 kts | 246° |
| 2026-05-08 23:46 | 53.21193 | -171.94394 | 10041 ft | 167 kts | 246° |
| 2026-05-08 23:46 | 53.20795 | -171.96216 | 10038 ft | 167 kts | 246° |
| 2026-05-08 23:46 | 53.20397 | -171.98044 | 10041 ft | 168 kts | 246° |
| 2026-05-08 23:47 | 53.20000 | -171.99855 | 10043 ft | 168 kts | 247° |
| 2026-05-08 23:47 | 53.19602 | -172.01686 | 10037 ft | 168 kts | 246° |
| 2026-05-08 23:47 | 53.19201 | -172.03519 | 10043 ft | 168 kts | 248° |
| 2026-05-08 23:47 | 53.18802 | -172.05355 | 10042 ft | 168 kts | 246° |
| 2026-05-08 23:48 | 53.18399 | -172.07191 | 10037 ft | 168 kts | 246° |
| 2026-05-08 23:48 | 53.17994 | -172.09032 | 10036 ft | 169 kts | 246° |
| 2026-05-08 23:48 | 53.17590 | -172.10879 | 10039 ft | 169 kts | 247° |
| 2026-05-08 23:48 | 53.17185 | -172.12732 | 10038 ft | 171 kts | 246° |
| 2026-05-08 23:49 | 53.16776 | -172.14581 | 10034 ft | 173 kts | 248° |
| 2026-05-08 23:49 | 53.16361 | -172.16477 | 10031 ft | 175 kts | 247° |
| 2026-05-08 23:49 | 53.15940 | -172.18387 | 10035 ft | 176 kts | 246° |
| 2026-05-08 23:49 | 53.15521 | -172.20290 | 10029 ft | 174 kts | 246° |
| 2026-05-08 23:50 | 53.15106 | -172.22172 | 10019 ft | 172 kts | 246° |
| 2026-05-08 23:50 | 53.14695 | -172.24030 | 10018 ft | 170 kts | 247° |
| 2026-05-08 23:50 | 53.14289 | -172.25871 | 10014 ft | 169 kts | 247° |
| 2026-05-08 23:50 | 53.13881 | -172.27704 | 10014 ft | 169 kts | 246° |
| 2026-05-08 23:51 | 53.13475 | -172.29539 | 10015 ft | 169 kts | 246° |
| 2026-05-08 23:51 | 53.13069 | -172.31372 | 10013 ft | 169 kts | 245° |
| 2026-05-08 23:51 | 53.12662 | -172.33207 | 10011 ft | 169 kts | 246° |
| 2026-05-08 23:51 | 53.12255 | -172.35043 | 10023 ft | 168 kts | 247° |
| 2026-05-08 23:52 | 53.11853 | -172.36863 | 10019 ft | 168 kts | 246° |
| 2026-05-08 23:52 | 53.11447 | -172.38685 | 10021 ft | 168 kts | 246° |
| 2026-05-08 23:52 | 53.11046 | -172.40483 | 10019 ft | 168 kts | 245° |
| 2026-05-08 23:52 | 53.10638 | -172.42308 | 10012 ft | 168 kts | 245° |
| 2026-05-08 23:53 | 53.10231 | -172.44138 | 10014 ft | 168 kts | 246° |
| 2026-05-08 23:53 | 53.09825 | -172.45957 | 10014 ft | 168 kts | 246° |
| 2026-05-08 23:53 | 53.09419 | -172.47778 | 10016 ft | 167 kts | 246° |
| 2026-05-08 23:53 | 53.09012 | -172.49601 | 10016 ft | 168 kts | 246° |
| 2026-05-08 23:54 | 53.08603 | -172.51427 | 10012 ft | 169 kts | 245° |
| 2026-05-08 23:54 | 53.08191 | -172.53261 | 10011 ft | 169 kts | 246° |
| 2026-05-08 23:54 | 53.07787 | -172.55071 | 10012 ft | 169 kts | 246° |
| 2026-05-08 23:55 | 53.06968 | -172.58729 | 10013 ft | 168 kts | 246° |
| 2026-05-08 23:55 | 53.06557 | -172.60552 | 10012 ft | 168 kts | 246° |
| 2026-05-08 23:55 | 53.06148 | -172.62373 | 10011 ft | 168 kts | 246° |
| 2026-05-08 23:55 | 53.05737 | -172.64198 | 10011 ft | 168 kts | 246° |
| 2026-05-08 23:56 | 53.05332 | -172.65997 | 10011 ft | 168 kts | 246° |
| 2026-05-08 23:56 | 53.04922 | -172.67817 | 10010 ft | 168 kts | 247° |
| 2026-05-08 23:56 | 53.04513 | -172.69634 | 10010 ft | 167 kts | 246° |
| 2026-05-08 23:56 | 53.04102 | -172.71451 | 10009 ft | 168 kts | 246° |
| 2026-05-08 23:57 | 53.03690 | -172.73269 | 10009 ft | 168 kts | 246° |
| 2026-05-08 23:57 | 53.03277 | -172.75095 | 10009 ft | 169 kts | 246° |
| 2026-05-08 23:57 | 53.02865 | -172.76916 | 10007 ft | 168 kts | 246° |
| 2026-05-08 23:57 | 53.02453 | -172.78730 | 10008 ft | 168 kts | 246° |
| 2026-05-08 23:58 | 53.02043 | -172.80543 | 10009 ft | 167 kts | 246° |
| 2026-05-08 23:58 | 53.01631 | -172.82356 | 10008 ft | 168 kts | 246° |
| 2026-05-08 23:58 | 53.01220 | -172.84167 | 10007 ft | 168 kts | 245° |
| 2026-05-08 23:58 | 53.00805 | -172.85978 | 10007 ft | 167 kts | 246° |
| 2026-05-08 23:59 | 53.00394 | -172.87786 | 10006 ft | 167 kts | 245° |
| 2026-05-08 23:59 | 52.99988 | -172.89567 | 10004 ft | 166 kts | 246° |
| 2026-05-08 23:59 | 52.99580 | -172.91359 | 10002 ft | 166 kts | 245° |
| 2026-05-08 23:59 | 52.99170 | -172.93154 | 10001 ft | 166 kts | 245° |
| 2026-05-09 00:00 | 52.98760 | -172.94951 | 10000 ft | 167 kts | 245° |
| 2026-05-09 00:00 | 52.98347 | -172.96752 | 10000 ft | 167 kts | 246° |
| 2026-05-09 00:00 | 52.97934 | -172.98562 | 10000 ft | 167 kts | 245° |
| 2026-05-09 00:00 | 52.97662 | -172.99753 | 10001 ft | 166 kts | 246° |
| 2026-05-09 00:01 | 52.97252 | -173.01545 | 9999 ft | 166 kts | 246° |
| 2026-05-09 00:01 | 52.96841 | -173.03335 | 9998 ft | 166 kts | 245° |
| 2026-05-09 00:01 | 52.96295 | -173.05712 | 9998 ft | 166 kts | 245° |
| 2026-05-09 00:01 | 52.96016 | -173.06924 | 9997 ft | 166 kts | 245° |
| 2026-05-09 00:02 | 52.95603 | -173.08722 | 9998 ft | 166 kts | 245° |
| 2026-05-09 00:02 | 52.95195 | -173.10491 | 9997 ft | 166 kts | 246° |
| 2026-05-09 00:02 | 52.94784 | -173.12280 | 9997 ft | 166 kts | 245° |
| 2026-05-09 00:02 | 52.94371 | -173.14075 | 9997 ft | 166 kts | 245° |
| 2026-05-09 00:03 | 52.93956 | -173.15874 | 9999 ft | 167 kts | 245° |
| 2026-05-09 00:03 | 52.93541 | -173.17669 | 9999 ft | 167 kts | 245° |
| 2026-05-09 00:03 | 52.93127 | -173.19467 | 10000 ft | 167 kts | 245° |
| 2026-05-09 00:03 | 52.92711 | -173.21267 | 10001 ft | 167 kts | 245° |
| 2026-05-09 00:04 | 52.92294 | -173.23069 | 9999 ft | 168 kts | 245° |
| 2026-05-09 00:04 | 52.91875 | -173.24874 | 10000 ft | 168 kts | 245° |
| 2026-05-09 00:04 | 52.91461 | -173.26662 | 10000 ft | 168 kts | 245° |
| 2026-05-09 00:04 | 52.91040 | -173.28477 | 10001 ft | 169 kts | 245° |
| 2026-05-09 00:05 | 52.90619 | -173.30293 | 10001 ft | 169 kts | 245° |
| 2026-05-09 00:05 | 52.90197 | -173.32107 | 9999 ft | 168 kts | 246° |
| 2026-05-09 00:05 | 52.89772 | -173.33941 | 10000 ft | 169 kts | 245° |
| 2026-05-09 00:05 | 52.89354 | -173.35730 | 10000 ft | 169 kts | 245° |
| 2026-05-09 00:06 | 52.88931 | -173.37546 | 10001 ft | 169 kts | 245° |
| 2026-05-09 00:06 | 52.88508 | -173.39362 | 10003 ft | 169 kts | 246° |
| 2026-05-09 00:06 | 52.88085 | -173.41177 | 9999 ft | 169 kts | 245° |
| 2026-05-09 00:06 | 52.87660 | -173.42994 | 10007 ft | 168 kts | 245° |
| 2026-05-09 00:07 | 52.87238 | -173.44805 | 10004 ft | 169 kts | 245° |
| 2026-05-09 00:07 | 52.86814 | -173.46615 | 10004 ft | 169 kts | 245° |
| 2026-05-09 00:07 | 52.86389 | -173.48428 | 10004 ft | 169 kts | 245° |
| 2026-05-09 00:07 | 52.85964 | -173.50243 | 10004 ft | 169 kts | 245° |
| 2026-05-09 00:08 | 52.85539 | -173.52055 | 10001 ft | 169 kts | 245° |
| 2026-05-09 00:08 | 52.85113 | -173.53870 | 9999 ft | 169 kts | 245° |
| 2026-05-09 00:08 | 52.84687 | -173.55680 | 9994 ft | 169 kts | 245° |
| 2026-05-09 00:08 | 52.84261 | -173.57490 | 9999 ft | 169 kts | 244° |
| 2026-05-09 00:09 | 52.83835 | -173.59299 | 10000 ft | 169 kts | 244° |
| 2026-05-09 00:09 | 52.83408 | -173.61111 | 10007 ft | 169 kts | 244° |
| 2026-05-09 00:09 | 52.82982 | -173.62916 | 10007 ft | 168 kts | 244° |
| 2026-05-09 00:09 | 52.82563 | -173.64697 | 10007 ft | 168 kts | 244° |
| 2026-05-09 00:10 | 52.82135 | -173.66504 | 10005 ft | 168 kts | 244° |
| 2026-05-09 00:10 | 52.81710 | -173.68310 | 10006 ft | 168 kts | 244° |
| 2026-05-09 00:10 | 52.81282 | -173.70115 | 10006 ft | 168 kts | 244° |
| 2026-05-09 00:10 | 52.80856 | -173.71920 | 10002 ft | 168 kts | 244° |
| 2026-05-09 00:11 | 52.80429 | -173.73723 | 10003 ft | 168 kts | 244° |
| 2026-05-09 00:11 | 52.80006 | -173.75502 | 10003 ft | 168 kts | 244° |
| 2026-05-09 00:11 | 52.79376 | -173.77069 | 9996 ft | 162 kts | 216° |
| 2026-05-09 00:11 | 52.78429 | -173.77988 | 10000 ft | 156 kts | 193° |
| 2026-05-09 00:12 | 52.77374 | -173.78261 | 9996 ft | 153 kts | 181° |
| 2026-05-09 00:12 | 52.76311 | -173.78468 | 10000 ft | 153 kts | 182° |
| 2026-05-09 00:12 | 52.75248 | -173.78682 | 9999 ft | 154 kts | 182° |
| 2026-05-09 00:12 | 52.74186 | -173.78891 | 9996 ft | 154 kts | 182° |
| 2026-05-09 00:13 | 52.73124 | -173.79096 | 9993 ft | 154 kts | 182° |
| 2026-05-09 00:13 | 52.72063 | -173.79302 | 9997 ft | 154 kts | 182° |
| 2026-05-09 00:13 | 52.71014 | -173.79505 | 9996 ft | 154 kts | 182° |
| 2026-05-09 00:13 | 52.69952 | -173.79709 | 9992 ft | 154 kts | 182° |
| 2026-05-09 00:14 | 52.68889 | -173.79916 | 9993 ft | 154 kts | 182° |
| 2026-05-09 00:14 | 52.67827 | -173.80120 | 9989 ft | 154 kts | 182° |
| 2026-05-09 00:14 | 52.66765 | -173.80325 | 9994 ft | 154 kts | 182° |
| 2026-05-09 00:14 | 52.65700 | -173.80531 | 9994 ft | 154 kts | 182° |
| 2026-05-09 00:15 | 52.64638 | -173.80735 | 9997 ft | 154 kts | 182° |
| 2026-05-09 00:15 | 52.63574 | -173.80940 | 9997 ft | 154 kts | 182° |
| 2026-05-09 00:15 | 52.62513 | -173.81144 | 9994 ft | 154 kts | 182° |
| 2026-05-09 00:15 | 52.61450 | -173.81347 | 9993 ft | 154 kts | 182° |
| 2026-05-09 00:16 | 52.60390 | -173.81551 | 9998 ft | 154 kts | 182° |
| 2026-05-09 00:16 | 52.59323 | -173.81755 | 9988 ft | 154 kts | 182° |
| 2026-05-09 00:16 | 52.58261 | -173.81960 | 9988 ft | 154 kts | 181° |
| 2026-05-09 00:16 | 52.57198 | -173.82163 | 9988 ft | 153 kts | 182° |
| 2026-05-09 00:17 | 52.56137 | -173.82366 | 9984 ft | 153 kts | 181° |
| 2026-05-09 00:17 | 52.55078 | -173.82569 | 9987 ft | 154 kts | 181° |
| 2026-05-09 00:17 | 52.54011 | -173.82773 | 9989 ft | 155 kts | 181° |
| 2026-05-09 00:17 | 52.52933 | -173.82980 | 9979 ft | 156 kts | 182° |
| 2026-05-09 00:18 | 52.51872 | -173.83176 | 9855 ft | 154 kts | 181° |
| 2026-05-09 00:18 | 52.50803 | -173.83375 | 9682 ft | 155 kts | 182° |
| 2026-05-09 00:18 | 52.49725 | -173.83589 | 9491 ft | 157 kts | 182° |
| 2026-05-09 00:18 | 52.48639 | -173.83796 | 9304 ft | 157 kts | 181° |
| 2026-05-09 00:19 | 52.47551 | -173.84005 | 9113 ft | 157 kts | 181° |
| 2026-05-09 00:19 | 52.46465 | -173.84212 | 8926 ft | 156 kts | 181° |
| 2026-05-09 00:19 | 52.45384 | -173.84415 | 8741 ft | 156 kts | 181° |
| 2026-05-09 00:19 | 52.44317 | -173.84620 | 8558 ft | 156 kts | 181° |
| 2026-05-09 00:20 | 52.43235 | -173.84824 | 8348 ft | 157 kts | 181° |
| 2026-05-09 00:20 | 52.42147 | -173.85032 | 8138 ft | 157 kts | 181° |
| 2026-05-09 00:20 | 52.41056 | -173.85237 | 7931 ft | 158 kts | 181° |
| 2026-05-09 00:20 | 52.39964 | -173.85450 | 7726 ft | 158 kts | 181° |
| 2026-05-09 00:21 | 52.38876 | -173.85647 | 7520 ft | 157 kts | 180° |
| 2026-05-09 00:21 | 52.37788 | -173.85855 | 7317 ft | 157 kts | 181° |
| 2026-05-09 00:21 | 52.36713 | -173.86056 | 7117 ft | 155 kts | 181° |
| 2026-05-09 00:21 | 52.35641 | -173.86263 | 6923 ft | 154 kts | 182° |
| 2026-05-09 00:22 | 52.34599 | -173.86465 | 6713 ft | 151 kts | 181° |
| 2026-05-09 00:22 | 52.33571 | -173.86659 | 6509 ft | 147 kts | 181° |
| 2026-05-09 00:22 | 52.32556 | -173.86849 | 6305 ft | 146 kts | 181° |
| 2026-05-09 00:22 | 52.31551 | -173.87037 | 6098 ft | 145 kts | 181° |
| 2026-05-09 00:23 | 52.30551 | -173.87225 | 5889 ft | 144 kts | 181° |
| 2026-05-09 00:23 | 52.29553 | -173.87412 | 5672 ft | 144 kts | 181° |
| 2026-05-09 00:23 | 52.28560 | -173.87600 | 5466 ft | 144 kts | 181° |
| 2026-05-09 00:23 | 52.27581 | -173.87784 | 5261 ft | 143 kts | 181° |
| 2026-05-09 00:24 | 52.26595 | -173.87971 | 5056 ft | 142 kts | 181° |
| 2026-05-09 00:24 | 52.25606 | -173.88157 | 4854 ft | 144 kts | 181° |
| 2026-05-09 00:24 | 52.24604 | -173.88340 | 4654 ft | 146 kts | 181° |
| 2026-05-09 00:24 | 52.23603 | -173.88524 | 4447 ft | 143 kts | 181° |
| 2026-05-09 00:25 | 52.22613 | -173.88711 | 4239 ft | 143 kts | 181° |
| 2026-05-09 00:25 | 52.21623 | -173.88898 | 4022 ft | 142 kts | 181° |
| 2026-05-09 00:25 | 52.20660 | -173.89085 | 3800 ft | 136 kts | 181° |
| 2026-05-09 00:25 | 52.19735 | -173.89260 | 3601 ft | 131 kts | 181° |
| 2026-05-09 00:26 | 52.18847 | -173.89511 | 3418 ft | 133 kts | 195° |
| 2026-05-09 00:26 | 52.18127 | -173.90536 | 3234 ft | 147 kts | 233° |
| 2026-05-09 00:26 | 52.17909 | -173.92187 | 3084 ft | 155 kts | 271° |
| 2026-05-09 00:26 | 52.18029 | -173.93934 | 2929 ft | 155 kts | 273° |
| 2026-05-09 00:27 | 52.18127 | -173.95683 | 2780 ft | 156 kts | 272° |
| 2026-05-09 00:27 | 52.18222 | -173.97461 | 2632 ft | 159 kts | 271° |
| 2026-05-09 00:27 | 52.18315 | -173.99262 | 2485 ft | 160 kts | 271° |
| 2026-05-09 00:27 | 52.18414 | -174.01066 | 2331 ft | 159 kts | 272° |
| 2026-05-09 00:28 | 52.18510 | -174.02856 | 2173 ft | 158 kts | 272° |
| 2026-05-09 00:28 | 52.18607 | -174.04620 | 2028 ft | 151 kts | 271° |
| 2026-05-09 00:28 | 52.18750 | -174.06241 | 1952 ft | 142 kts | 286° |
| 2026-05-09 00:28 | 52.19107 | -174.07736 | 1768 ft | 140 kts | 290° |
| 2026-05-09 00:29 | 52.19442 | -174.09217 | 1589 ft | 138 kts | 290° |
| 2026-05-09 00:29 | 52.19771 | -174.10686 | 1410 ft | 138 kts | 290° |
| 2026-05-09 00:29 | 52.20097 | -174.12130 | 1227 ft | 137 kts | 290° |
| 2026-05-09 00:29 | 52.20420 | -174.13571 | 1068 ft | 128 kts | 290° |
| 2026-05-09 00:30 | 52.20706 | -174.14854 | 927 ft | 115 kts | 290° |
| 2026-05-09 00:30 | 52.21011 | -174.16024 | 843 ft | 108 kts | 303° |
| 2026-05-09 00:30 | 52.21530 | -174.16860 | 807 ft | 104 kts | 328° |
| 2026-05-09 00:30 | 52.22115 | -174.17515 | 798 ft | 102 kts | 326° |
| 2026-05-09 00:31 | 52.22681 | -174.18250 | 715 ft | 106 kts | 320° |
| 2026-05-09 00:31 | 52.23219 | -174.19060 | 670 ft | 105 kts | 318° |
| 2026-05-09 00:31 | 52.23795 | -174.19788 | 654 ft | 102 kts | 322° |
| 2026-05-09 00:31 | 52.23911 | -174.20775 | 574 ft | 90 kts | 238° |
| 2026-05-09 00:32 | 52.23409 | -174.21214 | 368 ft | 85 kts | 175° |
| 2026-05-09 00:32 | 52.22849 | -174.20989 | 121 ft | 80 kts | 163° |
| 2026-05-09 00:32 | 52.22375 | -174.20767 | 51 ft | 57 kts | 165° |
| 2026-05-09 00:32 | 52.22093 | -174.20640 | 41 ft | 34 kts | 164° |
| 2026-05-09 00:33 | 52.21880 | -174.20544 | 38 ft | 32 kts | 165° |
| 2026-05-09 00:33 | 52.21729 | -174.20482 | 38 ft | 10 kts | 168° |
| 2026-05-09 00:33 | 52.21693 | -174.20519 | 37 ft | 7 kts | 251° |
| 2026-05-09 00:33 | 52.21673 | -174.20650 | 36 ft | 16 kts | 254° |
| 2026-05-09 00:34 | 52.21604 | -174.20730 | 35 ft | 8 kts | 154° |
| 2026-05-09 00:34 | 52.21609 | -174.20696 | 35 ft | 5 kts | 342° |
| 2026-05-09 00:34 | 52.21610 | -174.20697 | 35 ft | 0 kts | 341° |